sensor_id;sensor_type;location;lat;lon;timestamp;noise_LAeq;noise_LA_min;noise_LA_max;noise_LA01;noise_LA95
46749;Laerm;33775;47.992;11.864;2023-06-19T00:01:41;37.02;32.35;39.70;;
46749;Laerm;33775;47.992;11.864;2023-06-19T00:04:06;37.03;30.89;40.33;;
46749;Laerm;33775;47.992;11.864;2023-06-19T00:06:31;37.04;29.92;39.81;;
46749;Laerm;33775;47.992;11.864;2023-06-19T00:08:56;37.03;31.68;40.13;;
46749;Laerm;33775;47.992;11.864;2023-06-19T00:11:22;37.04;32.35;39.92;;
46749;Laerm;33775;47.992;11.864;2023-06-19T00:13:47;37.07;31.68;40.13;;
46749;Laerm;33775;47.992;11.864;2023-06-19T00:16:12;37.05;30.89;40.03;;
46749;Laerm;33775;47.992;11.864;2023-06-19T00:18:37;37.06;32.35;40.03;;
46749;Laerm;33775;47.992;11.864;2023-06-19T00:21:04;37.06;31.68;40.23;;
46749;Laerm;33775;47.992;11.864;2023-06-19T00:23:30;37.07;31.68;39.81;;
46749;Laerm;33775;47.992;11.864;2023-06-19T00:25:55;37.05;30.89;40.13;;
46749;Laerm;33775;47.992;11.864;2023-06-19T00:28:21;37.06;32.35;40.13;;
46749;Laerm;33775;47.992;11.864;2023-06-19T00:30:46;37.05;31.68;39.81;;
46749;Laerm;33775;47.992;11.864;2023-06-19T00:33:11;37.04;32.35;40.13;;
46749;Laerm;33775;47.992;11.864;2023-06-19T00:35:36;37.03;30.89;39.70;;
46749;Laerm;33775;47.992;11.864;2023-06-19T00:38:02;37.06;32.35;39.70;;
46749;Laerm;33775;47.992;11.864;2023-06-19T00:40:27;37.10;32.35;40.23;;
46749;Laerm;33775;47.992;11.864;2023-06-19T00:42:53;37.06;30.89;39.92;;
46749;Laerm;33775;47.992;11.864;2023-06-19T00:45:18;37.02;31.68;40.13;;
46749;Laerm;33775;47.992;11.864;2023-06-19T00:47:44;37.01;28.67;39.92;;
46749;Laerm;33775;47.992;11.864;2023-06-19T00:50:09;37.00;31.68;39.81;;
46749;Laerm;33775;47.992;11.864;2023-06-19T00:52:35;37.00;32.35;40.13;;
46749;Laerm;33775;47.992;11.864;2023-06-19T00:55:00;36.99;31.68;39.92;;
46749;Laerm;33775;47.992;11.864;2023-06-19T00:57:25;37.07;31.68;40.23;;
46749;Laerm;33775;47.992;11.864;2023-06-19T00:59:51;37.10;30.89;39.70;;
46749;Laerm;33775;47.992;11.864;2023-06-19T01:02:18;37.11;30.89;39.81;;
46749;Laerm;33775;47.992;11.864;2023-06-19T01:04:48;37.11;32.35;40.03;;
46749;Laerm;33775;47.992;11.864;2023-06-19T01:07:13;37.12;32.00;39.92;;
46749;Laerm;33775;47.992;11.864;2023-06-19T01:09:50;37.09;31.68;40.13;;
46749;Laerm;33775;47.992;11.864;2023-06-19T01:12:18;37.11;31.68;39.81;;
46749;Laerm;33775;47.992;11.864;2023-06-19T01:14:50;37.06;31.68;39.70;;
46749;Laerm;33775;47.992;11.864;2023-06-19T01:17:16;37.11;32.58;40.13;;
46749;Laerm;33775;47.992;11.864;2023-06-19T01:19:41;37.13;32.00;40.13;;
46749;Laerm;33775;47.992;11.864;2023-06-19T01:22:06;37.11;31.68;40.27;;
46749;Laerm;33775;47.992;11.864;2023-06-19T01:24:32;37.09;31.68;40.13;;
46749;Laerm;33775;47.992;11.864;2023-06-19T01:26:57;37.10;32.35;40.23;;
46749;Laerm;33775;47.992;11.864;2023-06-19T01:29:22;37.09;31.68;39.92;;
46749;Laerm;33775;47.992;11.864;2023-06-19T01:32:02;37.09;32.35;40.03;;
46749;Laerm;33775;47.992;11.864;2023-06-19T01:34:29;37.11;32.93;39.70;;
46749;Laerm;33775;47.992;11.864;2023-06-19T01:36:55;37.12;31.68;40.13;;
46749;Laerm;33775;47.992;11.864;2023-06-19T01:39:22;37.14;32.35;40.03;;
46749;Laerm;33775;47.992;11.864;2023-06-19T01:41:48;37.11;31.68;40.03;;
46749;Laerm;33775;47.992;11.864;2023-06-19T01:44:13;37.10;30.89;39.70;;
46749;Laerm;33775;47.992;11.864;2023-06-19T01:46:38;37.10;30.89;39.70;;
46749;Laerm;33775;47.992;11.864;2023-06-19T01:49:07;37.11;31.68;39.89;;
46749;Laerm;33775;47.992;11.864;2023-06-19T01:51:33;37.13;31.68;40.33;;
46749;Laerm;33775;47.992;11.864;2023-06-19T01:53:58;37.10;31.68;39.92;;
46749;Laerm;33775;47.992;11.864;2023-06-19T01:56:24;37.12;31.68;40.13;;
46749;Laerm;33775;47.992;11.864;2023-06-19T01:58:49;37.12;32.35;39.92;;
46749;Laerm;33775;47.992;11.864;2023-06-19T02:01:14;37.11;32.35;40.03;;
46749;Laerm;33775;47.992;11.864;2023-06-19T02:03:39;37.11;32.93;40.13;;
46749;Laerm;33775;47.992;11.864;2023-06-19T02:06:05;37.14;32.35;40.62;;
46749;Laerm;33775;47.992;11.864;2023-06-19T02:08:30;37.11;31.68;39.81;;
46749;Laerm;33775;47.992;11.864;2023-06-19T02:10:55;37.11;31.68;40.13;;
46749;Laerm;33775;47.992;11.864;2023-06-19T02:13:20;37.12;31.33;39.70;;
46749;Laerm;33775;47.992;11.864;2023-06-19T02:15:45;37.11;32.35;40.43;;
46749;Laerm;33775;47.992;11.864;2023-06-19T02:18:11;37.15;32.35;40.13;;
46749;Laerm;33775;47.992;11.864;2023-06-19T02:20:36;37.09;31.68;39.70;;
46749;Laerm;33775;47.992;11.864;2023-06-19T02:23:01;37.14;28.67;39.92;;
46749;Laerm;33775;47.992;11.864;2023-06-19T02:25:26;37.13;32.35;39.81;;
46749;Laerm;33775;47.992;11.864;2023-06-19T02:27:52;37.14;30.89;40.03;;
46749;Laerm;33775;47.992;11.864;2023-06-19T02:30:17;37.10;32.35;39.81;;
46749;Laerm;33775;47.992;11.864;2023-06-19T02:32:42;37.13;30.89;40.03;;
46749;Laerm;33775;47.992;11.864;2023-06-19T02:35:10;37.13;31.68;39.92;;
46749;Laerm;33775;47.992;11.864;2023-06-19T02:37:36;37.14;30.89;40.23;;
46749;Laerm;33775;47.992;11.864;2023-06-19T02:40:03;37.14;31.68;39.92;;
46749;Laerm;33775;47.992;11.864;2023-06-19T02:42:28;37.15;32.93;39.92;;
46749;Laerm;33775;47.992;11.864;2023-06-19T02:44:53;37.11;29.92;40.33;;
46749;Laerm;33775;47.992;11.864;2023-06-19T02:47:18;37.15;30.89;40.13;;
46749;Laerm;33775;47.992;11.864;2023-06-19T02:49:44;37.12;32.35;39.92;;
46749;Laerm;33775;47.992;11.864;2023-06-19T02:52:09;37.10;31.68;40.36;;
46749;Laerm;33775;47.992;11.864;2023-06-19T02:54:34;37.13;32.93;39.92;;
46749;Laerm;33775;47.992;11.864;2023-06-19T02:56:59;37.12;32.35;40.03;;
46749;Laerm;33775;47.992;11.864;2023-06-19T02:59:24;37.14;32.35;40.43;;
46749;Laerm;33775;47.992;11.864;2023-06-19T03:01:50;37.13;32.93;40.03;;
46749;Laerm;33775;47.992;11.864;2023-06-19T03:04:16;37.11;32.35;39.92;;
46749;Laerm;33775;47.992;11.864;2023-06-19T03:06:42;37.11;30.89;40.53;;
46749;Laerm;33775;47.992;11.864;2023-06-19T03:09:08;37.16;31.33;40.03;;
46749;Laerm;33775;47.992;11.864;2023-06-19T03:11:40;37.15;32.35;40.03;;
46749;Laerm;33775;47.992;11.864;2023-06-19T03:14:05;37.12;32.93;40.33;;
46749;Laerm;33775;47.992;11.864;2023-06-19T03:16:32;37.14;32.35;39.58;;
46749;Laerm;33775;47.992;11.864;2023-06-19T03:18:57;37.12;32.35;40.13;;
46749;Laerm;33775;47.992;11.864;2023-06-19T03:21:22;37.12;31.68;39.92;;
46749;Laerm;33775;47.992;11.864;2023-06-19T03:23:48;37.12;31.68;40.13;;
46749;Laerm;33775;47.992;11.864;2023-06-19T03:26:13;37.13;30.89;40.03;;
46749;Laerm;33775;47.992;11.864;2023-06-19T03:28:38;37.12;31.68;40.62;;
46749;Laerm;33775;47.992;11.864;2023-06-19T03:31:03;37.12;32.93;40.03;;
46749;Laerm;33775;47.992;11.864;2023-06-19T03:33:28;37.14;31.68;39.92;;
46749;Laerm;33775;47.992;11.864;2023-06-19T03:35:54;37.13;31.68;39.92;;
46749;Laerm;33775;47.992;11.864;2023-06-19T03:38:19;37.11;32.35;39.92;;
46749;Laerm;33775;47.992;11.864;2023-06-19T03:40:45;37.14;30.89;40.13;;
46749;Laerm;33775;47.992;11.864;2023-06-19T03:43:10;37.13;32.35;43.09;;
46749;Laerm;33775;47.992;11.864;2023-06-19T03:45:35;37.19;32.35;48.57;;
46749;Laerm;33775;47.992;11.864;2023-06-19T03:48:01;37.17;32.93;40.03;;
46749;Laerm;33775;47.992;11.864;2023-06-19T03:50:26;37.14;32.35;39.81;;
46749;Laerm;33775;47.992;11.864;2023-06-19T03:52:51;37.21;32.35;51.60;;
46749;Laerm;33775;47.992;11.864;2023-06-19T03:55:17;37.13;31.68;40.43;;
46749;Laerm;33775;47.992;11.864;2023-06-19T03:57:42;37.13;30.89;40.03;;
46749;Laerm;33775;47.992;11.864;2023-06-19T04:00:07;37.11;32.93;40.03;;
46749;Laerm;33775;47.992;11.864;2023-06-19T04:02:33;37.13;32.35;39.92;;
46749;Laerm;33775;47.992;11.864;2023-06-19T04:04:58;37.16;32.35;40.33;;
46749;Laerm;33775;47.992;11.864;2023-06-19T04:07:23;37.13;32.93;39.92;;
46749;Laerm;33775;47.992;11.864;2023-06-19T04:09:49;37.12;31.68;40.53;;
46749;Laerm;33775;47.992;11.864;2023-06-19T04:12:14;37.15;32.35;39.92;;
46749;Laerm;33775;47.992;11.864;2023-06-19T04:14:39;37.14;32.35;40.23;;
46749;Laerm;33775;47.992;11.864;2023-06-19T04:17:04;37.16;30.89;39.92;;
46749;Laerm;33775;47.992;11.864;2023-06-19T04:19:29;37.14;31.68;40.33;;
46749;Laerm;33775;47.992;11.864;2023-06-19T04:21:55;37.13;32.35;40.23;;
46749;Laerm;33775;47.992;11.864;2023-06-19T04:24:20;37.15;31.68;40.03;;
46749;Laerm;33775;47.992;11.864;2023-06-19T04:26:45;37.15;31.68;39.99;;
46749;Laerm;33775;47.992;11.864;2023-06-19T04:29:10;37.12;32.35;40.03;;
46749;Laerm;33775;47.992;11.864;2023-06-19T04:31:43;37.12;32.35;40.33;;
46749;Laerm;33775;47.992;11.864;2023-06-19T04:34:08;37.11;32.35;39.92;;
46749;Laerm;33775;47.992;11.864;2023-06-19T04:36:33;37.07;30.89;39.70;;
46749;Laerm;33775;47.992;11.864;2023-06-19T04:38:58;37.12;32.35;39.92;;
46749;Laerm;33775;47.992;11.864;2023-06-19T04:41:25;37.15;32.93;40.23;;
46749;Laerm;33775;47.992;11.864;2023-06-19T04:43:51;37.14;31.68;39.92;;
46749;Laerm;33775;47.992;11.864;2023-06-19T04:46:16;37.14;32.93;39.92;;
46749;Laerm;33775;47.992;11.864;2023-06-19T04:48:45;37.11;32.35;39.92;;
46749;Laerm;33775;47.992;11.864;2023-06-19T04:51:10;37.06;32.35;39.92;;
46749;Laerm;33775;47.992;11.864;2023-06-19T04:53:35;37.09;32.35;39.81;;
46749;Laerm;33775;47.992;11.864;2023-06-19T04:56:02;37.08;31.68;40.23;;
46749;Laerm;33775;47.992;11.864;2023-06-19T04:58:27;37.10;32.35;39.92;;
46749;Laerm;33775;47.992;11.864;2023-06-19T05:00:52;37.17;30.89;40.03;;
46749;Laerm;33775;47.992;11.864;2023-06-19T05:03:17;37.13;31.68;39.81;;
46749;Laerm;33775;47.992;11.864;2023-06-19T05:05:43;37.13;32.35;39.92;;
46749;Laerm;33775;47.992;11.864;2023-06-19T05:08:08;37.11;32.35;39.92;;
46749;Laerm;33775;47.992;11.864;2023-06-19T05:10:33;37.11;32.35;40.23;;
46749;Laerm;33775;47.992;11.864;2023-06-19T05:12:59;37.12;32.35;39.81;;
46749;Laerm;33775;47.992;11.864;2023-06-19T05:15:24;37.15;31.68;40.23;;
46749;Laerm;33775;47.992;11.864;2023-06-19T05:17:49;37.14;32.93;39.81;;
46749;Laerm;33775;47.992;11.864;2023-06-19T05:20:15;37.17;32.93;40.33;;
46749;Laerm;33775;47.992;11.864;2023-06-19T05:22:40;37.15;32.35;40.13;;
46749;Laerm;33775;47.992;11.864;2023-06-19T05:25:05;37.13;32.35;39.92;;
46749;Laerm;33775;47.992;11.864;2023-06-19T05:27:31;37.15;32.93;39.81;;
46749;Laerm;33775;47.992;11.864;2023-06-19T05:29:56;37.16;31.68;40.33;;
46749;Laerm;33775;47.992;11.864;2023-06-19T05:32:21;37.12;32.35;39.92;;
46749;Laerm;33775;47.992;11.864;2023-06-19T05:34:46;37.15;32.93;40.03;;
46749;Laerm;33775;47.992;11.864;2023-06-19T05:37:11;37.12;32.58;40.03;;
46749;Laerm;33775;47.992;11.864;2023-06-19T05:39:37;37.10;32.35;40.03;;
46749;Laerm;33775;47.992;11.864;2023-06-19T05:42:02;37.11;31.68;40.62;;
46749;Laerm;33775;47.992;11.864;2023-06-19T05:44:27;37.11;32.35;39.92;;
46749;Laerm;33775;47.992;11.864;2023-06-19T05:46:52;37.16;31.68;39.70;;
46749;Laerm;33775;47.992;11.864;2023-06-19T05:49:18;37.16;32.35;40.03;;
46749;Laerm;33775;47.992;11.864;2023-06-19T05:51:43;37.10;31.68;39.58;;
46749;Laerm;33775;47.992;11.864;2023-06-19T05:54:08;37.05;31.68;40.13;;
46749;Laerm;33775;47.992;11.864;2023-06-19T05:56:34;37.05;30.89;40.13;;
46749;Laerm;33775;47.992;11.864;2023-06-19T05:59:01;37.06;32.35;39.81;;
46749;Laerm;33775;47.992;11.864;2023-06-19T06:01:26;37.06;30.89;40.13;;
46749;Laerm;33775;47.992;11.864;2023-06-19T06:03:53;37.07;31.68;39.70;;
46749;Laerm;33775;47.992;11.864;2023-06-19T06:06:18;37.10;32.35;39.92;;
46749;Laerm;33775;47.992;11.864;2023-06-19T06:08:44;37.07;32.35;39.92;;
46749;Laerm;33775;47.992;11.864;2023-06-19T06:11:09;37.08;31.68;40.23;;
46749;Laerm;33775;47.992;11.864;2023-06-19T06:13:34;37.06;30.89;39.92;;
46749;Laerm;33775;47.992;11.864;2023-06-19T06:15:59;37.02;31.68;39.58;;
46749;Laerm;33775;47.992;11.864;2023-06-19T06:18:24;37.00;32.00;40.80;;
46749;Laerm;33775;47.992;11.864;2023-06-19T06:20:49;36.99;31.68;39.70;;
46749;Laerm;33775;47.992;11.864;2023-06-19T06:23:14;37.00;31.68;40.43;;
46749;Laerm;33775;47.992;11.864;2023-06-19T06:25:40;37.01;32.93;40.03;;
46749;Laerm;33775;47.992;11.864;2023-06-19T06:28:05;37.03;32.35;39.92;;
46749;Laerm;33775;47.992;11.864;2023-06-19T06:30:30;37.05;32.93;39.92;;
46749;Laerm;33775;47.992;11.864;2023-06-19T06:32:56;37.02;32.35;39.70;;
46749;Laerm;33775;47.992;11.864;2023-06-19T06:35:21;37.05;32.35;39.81;;
46749;Laerm;33775;47.992;11.864;2023-06-19T06:37:46;37.03;32.35;39.70;;
46749;Laerm;33775;47.992;11.864;2023-06-19T06:40:14;37.06;30.89;40.03;;
46749;Laerm;33775;47.992;11.864;2023-06-19T06:42:39;37.16;32.35;40.13;;
46749;Laerm;33775;47.992;11.864;2023-06-19T06:45:05;37.24;33.44;40.03;;
46749;Laerm;33775;47.992;11.864;2023-06-19T06:47:31;37.30;32.35;39.70;;
46749;Laerm;33775;47.992;11.864;2023-06-19T06:49:56;37.34;32.93;39.92;;
46749;Laerm;33775;47.992;11.864;2023-06-19T06:52:21;37.39;33.44;40.13;;
46749;Laerm;33775;47.992;11.864;2023-06-19T06:54:47;37.45;32.93;40.03;;
46749;Laerm;33775;47.992;11.864;2023-06-19T06:57:12;37.46;33.44;40.03;;
46749;Laerm;33775;47.992;11.864;2023-06-19T06:59:37;37.48;33.44;40.23;;
46749;Laerm;33775;47.992;11.864;2023-06-19T07:02:02;37.48;33.44;40.13;;
46749;Laerm;33775;47.992;11.864;2023-06-19T07:04:28;37.48;32.93;40.13;;
46749;Laerm;33775;47.992;11.864;2023-06-19T07:06:53;37.49;33.90;39.92;;
46749;Laerm;33775;47.992;11.864;2023-06-19T07:09:18;37.51;33.44;40.23;;
46749;Laerm;33775;47.992;11.864;2023-06-19T07:11:43;37.51;33.44;40.23;;
46749;Laerm;33775;47.992;11.864;2023-06-19T07:14:08;37.55;32.93;39.92;;
46749;Laerm;33775;47.992;11.864;2023-06-19T07:16:34;37.56;32.93;40.23;;
46749;Laerm;33775;47.992;11.864;2023-06-19T07:18:59;37.54;33.44;40.33;;
46749;Laerm;33775;47.992;11.864;2023-06-19T07:21:24;37.53;32.93;40.53;;
46749;Laerm;33775;47.992;11.864;2023-06-19T07:23:52;37.53;33.90;40.23;;
46749;Laerm;33775;47.992;11.864;2023-06-19T07:26:17;37.52;33.44;40.03;;
46749;Laerm;33775;47.992;11.864;2023-06-19T07:28:42;37.50;32.93;40.43;;
46749;Laerm;33775;47.992;11.864;2023-06-19T07:31:08;37.52;33.44;40.43;;
46749;Laerm;33775;47.992;11.864;2023-06-19T07:33:33;37.50;33.44;40.23;;
46749;Laerm;33775;47.992;11.864;2023-06-19T07:35:58;37.52;33.90;40.23;;
46749;Laerm;33775;47.992;11.864;2023-06-19T07:38:23;37.52;32.93;40.23;;
46749;Laerm;33775;47.992;11.864;2023-06-19T07:40:49;37.53;33.44;40.33;;
46749;Laerm;33775;47.992;11.864;2023-06-19T07:43:14;37.52;33.44;40.03;;
46749;Laerm;33775;47.992;11.864;2023-06-19T07:45:39;37.53;33.44;40.23;;
46749;Laerm;33775;47.992;11.864;2023-06-19T07:48:04;37.51;32.35;40.89;;
46749;Laerm;33775;47.992;11.864;2023-06-19T07:50:30;37.51;32.35;39.92;;
46749;Laerm;33775;47.992;11.864;2023-06-19T07:52:55;37.53;33.44;40.33;;
46749;Laerm;33775;47.992;11.864;2023-06-19T07:55:20;37.53;33.44;40.03;;
46749;Laerm;33775;47.992;11.864;2023-06-19T07:57:45;37.52;33.44;40.23;;
46749;Laerm;33775;47.992;11.864;2023-06-19T08:00:11;37.52;32.93;40.33;;
46749;Laerm;33775;47.992;11.864;2023-06-19T08:02:39;37.55;32.93;40.71;;
46749;Laerm;33775;47.992;11.864;2023-06-19T08:05:04;37.54;32.93;40.33;;
46749;Laerm;33775;47.992;11.864;2023-06-19T08:07:30;37.54;33.44;40.62;;
46749;Laerm;33775;47.992;11.864;2023-06-19T08:09:55;37.52;32.93;40.23;;
46749;Laerm;33775;47.992;11.864;2023-06-19T08:12:20;37.51;32.93;40.13;;
46749;Laerm;33775;47.992;11.864;2023-06-19T08:14:45;37.50;32.93;40.43;;
46749;Laerm;33775;47.992;11.864;2023-06-19T08:17:10;37.49;32.93;40.36;;
46749;Laerm;33775;47.992;11.864;2023-06-19T08:19:36;37.47;32.35;40.03;;
46749;Laerm;33775;47.992;11.864;2023-06-19T08:22:01;37.47;31.68;40.43;;
46749;Laerm;33775;47.992;11.864;2023-06-19T08:24:26;37.46;32.35;39.89;;
46749;Laerm;33775;47.992;11.864;2023-06-19T08:26:51;37.47;33.44;40.71;;
46749;Laerm;33775;47.992;11.864;2023-06-19T08:29:17;37.52;32.93;40.03;;
46749;Laerm;33775;47.992;11.864;2023-06-19T08:31:43;37.45;31.68;40.23;;
46749;Laerm;33775;47.992;11.864;2023-06-19T08:34:08;37.45;32.93;40.53;;
46749;Laerm;33775;47.992;11.864;2023-06-19T08:36:34;37.42;32.93;40.23;;
46749;Laerm;33775;47.992;11.864;2023-06-19T08:38:59;37.45;32.93;40.13;;
46749;Laerm;33775;47.992;11.864;2023-06-19T08:41:25;37.44;32.93;40.13;;
46749;Laerm;33775;47.992;11.864;2023-06-19T08:43:50;37.43;32.93;40.03;;
46749;Laerm;33775;47.992;11.864;2023-06-19T08:46:15;37.37;31.68;40.62;;
46749;Laerm;33775;47.992;11.864;2023-06-19T08:48:42;37.42;32.93;40.23;;
46749;Laerm;33775;47.992;11.864;2023-06-19T08:51:08;37.36;32.93;40.43;;
46749;Laerm;33775;47.992;11.864;2023-06-19T08:53:35;37.34;32.35;40.43;;
46749;Laerm;33775;47.992;11.864;2023-06-19T08:56:02;37.38;32.00;40.23;;
46749;Laerm;33775;47.992;11.864;2023-06-19T08:58:27;37.39;32.35;39.92;;
46749;Laerm;33775;47.992;11.864;2023-06-19T09:00:52;37.41;32.93;40.43;;
46749;Laerm;33775;47.992;11.864;2023-06-19T09:03:20;37.36;32.35;40.03;;
46749;Laerm;33775;47.992;11.864;2023-06-19T09:05:49;37.37;32.93;40.33;;
46749;Laerm;33775;47.992;11.864;2023-06-19T09:08:18;37.36;31.68;40.23;;
46749;Laerm;33775;47.992;11.864;2023-06-19T09:10:54;37.36;32.35;40.80;;
46749;Laerm;33775;47.992;11.864;2023-06-19T09:13:19;37.35;32.35;40.13;;
46749;Laerm;33775;47.992;11.864;2023-06-19T09:15:44;37.33;32.93;40.23;;
46749;Laerm;33775;47.992;11.864;2023-06-19T09:18:10;37.28;32.35;40.53;;
46749;Laerm;33775;47.992;11.864;2023-06-19T09:20:40;37.27;31.68;40.23;;
46749;Laerm;33775;47.992;11.864;2023-06-19T09:23:09;37.27;32.35;40.23;;
46749;Laerm;33775;47.992;11.864;2023-06-19T09:25:43;37.22;32.93;40.13;;
46749;Laerm;33775;47.992;11.864;2023-06-19T09:28:16;37.25;32.35;39.92;;
46749;Laerm;33775;47.992;11.864;2023-06-19T09:30:50;37.26;32.93;40.43;;
46749;Laerm;33775;47.992;11.864;2023-06-19T09:33:15;37.21;29.92;40.23;;
46749;Laerm;33775;47.992;11.864;2023-06-19T09:35:41;37.20;30.89;40.13;;
46749;Laerm;33775;47.992;11.864;2023-06-19T09:38:06;37.19;31.68;40.33;;
46749;Laerm;33775;47.992;11.864;2023-06-19T09:40:31;37.21;30.89;39.81;;
46749;Laerm;33775;47.992;11.864;2023-06-19T09:42:57;37.21;31.68;40.33;;
46749;Laerm;33775;47.992;11.864;2023-06-19T09:45:23;37.18;29.92;39.92;;
46749;Laerm;33775;47.992;11.864;2023-06-19T09:47:48;37.17;32.35;39.81;;
46749;Laerm;33775;47.992;11.864;2023-06-19T09:50:17;37.17;31.68;39.92;;
46749;Laerm;33775;47.992;11.864;2023-06-19T09:52:42;37.15;31.68;40.62;;
46749;Laerm;33775;47.992;11.864;2023-06-19T09:55:08;37.10;30.89;40.33;;
46749;Laerm;33775;47.992;11.864;2023-06-19T09:57:35;37.10;31.68;40.13;;
46749;Laerm;33775;47.992;11.864;2023-06-19T10:00:01;37.12;30.89;40.23;;
46749;Laerm;33775;47.992;11.864;2023-06-19T10:02:37;37.14;31.68;40.33;;
46749;Laerm;33775;47.992;11.864;2023-06-19T10:05:03;37.09;31.68;40.13;;
46749;Laerm;33775;47.992;11.864;2023-06-19T10:07:35;37.12;31.68;40.23;;
46749;Laerm;33775;47.992;11.864;2023-06-19T10:10:01;37.10;29.92;39.92;;
46749;Laerm;33775;47.992;11.864;2023-06-19T10:17:49;37.18;32.35;40.23;;
46749;Laerm;33775;47.992;11.864;2023-06-19T10:20:22;37.11;31.68;40.13;;
46749;Laerm;33775;47.992;11.864;2023-06-19T10:22:51;37.12;31.33;40.43;;
46749;Laerm;33775;47.992;11.864;2023-06-19T10:25:20;37.06;31.68;40.13;;
46749;Laerm;33775;47.992;11.864;2023-06-19T10:27:46;36.86;26.91;40.13;;
46749;Laerm;33775;47.992;11.864;2023-06-19T10:30:16;36.91;30.54;40.33;;
46749;Laerm;33775;47.992;11.864;2023-06-19T10:32:42;36.90;30.89;39.70;;
46749;Laerm;33775;47.992;11.864;2023-06-19T10:35:10;36.94;32.35;40.13;;
46749;Laerm;33775;47.992;11.864;2023-06-19T10:37:36;37.05;30.89;40.33;;
46749;Laerm;33775;47.992;11.864;2023-06-19T10:40:01;36.97;30.89;40.03;;
46749;Laerm;33775;47.992;11.864;2023-06-19T10:42:26;36.97;30.89;40.13;;
46749;Laerm;33775;47.992;11.864;2023-06-19T10:44:58;37.00;30.89;40.13;;
46749;Laerm;33775;47.992;11.864;2023-06-19T10:47:23;37.00;30.89;40.43;;
46749;Laerm;33775;47.992;11.864;2023-06-19T10:49:49;37.05;28.67;40.03;;
46749;Laerm;33775;47.992;11.864;2023-06-19T10:52:14;37.11;29.92;39.92;;
46749;Laerm;33775;47.992;11.864;2023-06-19T10:54:40;37.16;31.68;40.13;;
46749;Laerm;33775;47.992;11.864;2023-06-19T10:57:06;37.15;31.68;39.92;;
46749;Laerm;33775;47.992;11.864;2023-06-19T10:59:31;37.21;29.92;40.43;;
46749;Laerm;33775;47.992;11.864;2023-06-19T11:01:58;37.21;32.35;40.33;;
46749;Laerm;33775;47.992;11.864;2023-06-19T11:04:23;37.26;32.35;40.71;;
46749;Laerm;33775;47.992;11.864;2023-06-19T11:06:50;37.18;30.89;40.53;;
46749;Laerm;33775;47.992;11.864;2023-06-19T11:09:15;37.17;30.89;40.03;;
46749;Laerm;33775;47.992;11.864;2023-06-19T11:11:42;37.18;32.35;40.23;;
46749;Laerm;33775;47.992;11.864;2023-06-19T11:14:07;37.11;29.92;40.23;;
46749;Laerm;33775;47.992;11.864;2023-06-19T11:16:33;36.92;28.67;40.13;;
46749;Laerm;33775;47.992;11.864;2023-06-19T11:18:59;36.92;29.92;39.81;;
46749;Laerm;33775;47.992;11.864;2023-06-19T11:21:31;37.03;31.68;39.92;;
46749;Laerm;33775;47.992;11.864;2023-06-19T11:23:59;36.95;30.89;39.92;;
46749;Laerm;33775;47.992;11.864;2023-06-19T11:26:25;36.90;29.92;40.23;;
46749;Laerm;33775;47.992;11.864;2023-06-19T11:28:50;36.94;29.92;40.13;;
46749;Laerm;33775;47.992;11.864;2023-06-19T11:31:16;37.02;31.68;39.92;;
46749;Laerm;33775;47.992;11.864;2023-06-19T11:33:41;37.07;30.89;40.53;;
46749;Laerm;33775;47.992;11.864;2023-06-19T11:36:06;37.16;29.92;45.72;;
46749;Laerm;33775;47.992;11.864;2023-06-19T11:38:32;37.15;31.68;40.33;;
46749;Laerm;33775;47.992;11.864;2023-06-19T11:40:59;37.05;31.68;40.23;;
46749;Laerm;33775;47.992;11.864;2023-06-19T11:43:31;37.08;31.68;39.81;;
46749;Laerm;33775;47.992;11.864;2023-06-19T11:46:03;37.08;29.92;40.03;;
46749;Laerm;33775;47.992;11.864;2023-06-19T11:48:28;37.01;31.68;39.92;;
46749;Laerm;33775;47.992;11.864;2023-06-19T11:50:53;36.88;30.89;39.70;;
46749;Laerm;33775;47.992;11.864;2023-06-19T11:53:19;36.86;31.68;40.33;;
46749;Laerm;33775;47.992;11.864;2023-06-19T11:55:45;36.95;31.68;40.03;;
46749;Laerm;33775;47.992;11.864;2023-06-19T11:58:10;36.95;29.92;39.99;;
46749;Laerm;33775;47.992;11.864;2023-06-19T12:00:38;36.92;30.89;39.92;;
46749;Laerm;33775;47.992;11.864;2023-06-19T12:03:04;36.93;29.92;40.03;;
46749;Laerm;33775;47.992;11.864;2023-06-19T12:05:29;37.00;28.67;39.92;;
46749;Laerm;33775;47.992;11.864;2023-06-19T12:07:54;37.06;31.68;40.33;;
46749;Laerm;33775;47.992;11.864;2023-06-19T12:10:19;37.00;29.92;40.23;;
46749;Laerm;33775;47.992;11.864;2023-06-19T12:12:45;37.01;30.89;40.33;;
46749;Laerm;33775;47.992;11.864;2023-06-19T12:15:10;37.01;30.89;40.03;;
46749;Laerm;33775;47.992;11.864;2023-06-19T12:17:35;36.99;32.35;40.33;;
46749;Laerm;33775;47.992;11.864;2023-06-19T12:20:01;36.95;30.89;39.70;;
46749;Laerm;33775;47.992;11.864;2023-06-19T12:22:26;36.95;30.89;40.23;;
46749;Laerm;33775;47.992;11.864;2023-06-19T12:24:52;36.96;29.92;40.23;;
46749;Laerm;33775;47.992;11.864;2023-06-19T12:27:17;36.97;31.68;39.92;;
46749;Laerm;33775;47.992;11.864;2023-06-19T12:29:42;36.94;30.89;39.81;;
46749;Laerm;33775;47.992;11.864;2023-06-19T12:32:07;36.97;29.57;40.33;;
46749;Laerm;33775;47.992;11.864;2023-06-19T12:34:33;36.97;26.91;40.13;;
46749;Laerm;33775;47.992;11.864;2023-06-19T12:36:58;36.96;29.92;40.43;;
46749;Laerm;33775;47.992;11.864;2023-06-19T12:39:23;36.92;30.89;40.13;;
46749;Laerm;33775;47.992;11.864;2023-06-19T12:41:49;36.87;30.89;39.92;;
46749;Laerm;33775;47.992;11.864;2023-06-19T12:44:14;36.91;30.89;40.13;;
46749;Laerm;33775;47.992;11.864;2023-06-19T12:46:40;36.96;29.92;40.03;;
46749;Laerm;33775;47.992;11.864;2023-06-19T12:49:05;36.96;30.89;40.03;;
46749;Laerm;33775;47.992;11.864;2023-06-19T12:51:30;36.99;30.89;40.03;;
46749;Laerm;33775;47.992;11.864;2023-06-19T12:53:55;36.93;31.68;39.92;;
46749;Laerm;33775;47.992;11.864;2023-06-19T12:56:20;36.93;29.92;39.92;;
46749;Laerm;33775;47.992;11.864;2023-06-19T12:58:46;36.95;31.68;39.92;;
46749;Laerm;33775;47.992;11.864;2023-06-19T13:01:11;36.92;29.92;40.03;;
46749;Laerm;33775;47.992;11.864;2023-06-19T13:03:36;36.95;31.68;40.23;;
46749;Laerm;33775;47.992;11.864;2023-06-19T13:06:01;36.95;30.89;40.13;;
46749;Laerm;33775;47.992;11.864;2023-06-19T13:08:26;36.94;30.89;40.03;;
46749;Laerm;33775;47.992;11.864;2023-06-19T13:10:52;36.89;30.89;39.81;;
46749;Laerm;33775;47.992;11.864;2023-06-19T13:13:17;36.92;30.89;39.81;;
46749;Laerm;33775;47.992;11.864;2023-06-19T13:15:42;36.94;30.89;40.23;;
46749;Laerm;33775;47.992;11.864;2023-06-19T13:18:08;36.93;30.89;39.81;;
46749;Laerm;33775;47.992;11.864;2023-06-19T13:20:33;36.90;30.89;39.81;;
46749;Laerm;33775;47.992;11.864;2023-06-19T13:22:58;36.91;30.89;39.92;;
46749;Laerm;33775;47.992;11.864;2023-06-19T13:25:23;36.87;29.92;40.03;;
46749;Laerm;33775;47.992;11.864;2023-06-19T13:27:48;36.92;30.89;39.92;;
46749;Laerm;33775;47.992;11.864;2023-06-19T13:30:14;36.89;29.92;39.78;;